createdAt,value
2019-05-11T00:04:06.621Z,17.63
2019-05-11T00:09:02.951Z,17.17
2019-05-11T00:13:56.906Z,17.77
2019-05-11T00:18:51.177Z,17.10
2019-05-11T00:23:45.157Z,17.20
2019-05-11T00:28:39.129Z,16.57
2019-05-11T00:33:33.096Z,17.67
2019-05-11T00:38:27.037Z,16.53
2019-05-11T00:43:21.015Z,16.10
2019-05-11T00:48:14.996Z,16.33
2019-05-11T00:53:09.274Z,16.27
2019-05-11T00:58:03.340Z,16.17
2019-05-11T01:02:57.287Z,15.30
2019-05-11T01:07:51.261Z,15.20
2019-05-11T01:12:45.319Z,15.43
2019-05-11T01:17:39.409Z,14.90
2019-05-11T01:22:33.383Z,14.17
2019-05-11T01:27:27.342Z,15.63
2019-05-11T01:32:21.298Z,14.60
2019-05-11T01:37:15.331Z,14.57
2019-05-11T01:42:09.212Z,15.13
2019-05-11T01:47:03.262Z,14.77
2019-05-11T01:51:57.219Z,15.07
2019-05-11T01:56:51.209Z,15.37
2019-05-11T02:01:45.183Z,15.60
2019-05-11T02:06:39.137Z,15.37
2019-05-11T02:11:33.171Z,15.63
2019-05-11T02:16:27.129Z,15.77
2019-05-11T02:21:21.133Z,16.40
2019-05-11T02:26:15.103Z,15.23
2019-05-11T02:31:09.089Z,16.03
2019-05-11T02:36:03.185Z,16.57
2019-05-11T02:40:57.261Z,15.40
2019-05-11T02:45:51.218Z,16.63
2019-05-11T02:50:45.599Z,15.33
2019-05-11T02:55:39.564Z,15.93
2019-05-11T03:00:36.627Z,15.77
2019-05-11T03:05:30.590Z,16.87
2019-05-11T03:10:24.576Z,15.57
2019-05-11T03:15:18.528Z,15.40
2019-05-11T03:20:12.490Z,17.37
2019-05-11T03:25:06.442Z,15.63
2019-05-11T03:30:01.673Z,17.03
2019-05-11T03:34:56.290Z,19.10
2019-05-11T03:39:50.207Z,18.90
2019-05-11T03:44:44.165Z,19.03
2019-05-11T03:49:38.144Z,20.70
2019-05-11T03:54:32.109Z,22.10
2019-05-11T03:59:26.058Z,22.60
2019-05-11T04:04:20.009Z,23.00
2019-05-11T04:09:13.973Z,23.33
2019-05-11T04:14:07.922Z,23.80
2019-05-11T04:19:01.874Z,23.63
2019-05-11T04:23:55.873Z,23.20
2019-05-11T04:28:49.820Z,23.10
2019-05-11T04:33:43.878Z,24.70
2019-05-11T04:38:37.937Z,24.07
2019-05-11T04:43:32.145Z,23.23
2019-05-11T04:48:26.134Z,22.37
2019-05-11T04:53:20.114Z,22.17
2019-05-11T04:58:14.164Z,21.10
2019-05-11T05:03:08.128Z,21.30
2019-05-11T05:08:09.505Z,20.50
2019-05-11T05:13:10.275Z,20.47
2019-05-11T05:17:53.877Z,19.40
2019-05-11T05:22:47.849Z,18.47
2019-05-11T05:27:41.778Z,19.57
2019-05-11T05:32:35.747Z,19.43
2019-05-11T05:37:29.708Z,17.73
2019-05-11T05:42:23.719Z,18.23
2019-05-11T05:47:17.761Z,17.57
2019-05-11T05:52:11.941Z,17.40
2019-05-11T05:57:05.881Z,16.93
2019-05-11T06:01:59.847Z,16.77
2019-05-11T06:06:54.346Z,16.37
2019-05-11T06:11:48.367Z,14.97
2019-05-11T06:16:42.346Z,14.30
2019-05-11T06:21:36.309Z,14.97
2019-05-11T06:26:30.398Z,14.20
2019-05-11T06:31:24.461Z,12.90
2019-05-11T06:36:18.424Z,12.43
2019-05-11T06:41:12.381Z,12.40
2019-05-11T06:46:06.330Z,12.07
2019-05-11T06:51:00.477Z,12.53
2019-05-11T06:55:54.454Z,13.53
2019-05-11T07:00:48.405Z,13.67
2019-05-11T07:05:43.281Z,13.40
2019-05-11T07:10:37.370Z,14.03
2019-05-11T07:15:31.342Z,13.10
2019-05-11T07:20:25.323Z,12.47
2019-05-11T07:25:19.411Z,11.63
2019-05-11T07:30:13.516Z,12.17
2019-05-11T07:35:08.402Z,12.00
2019-05-11T07:40:05.501Z,12.93
2019-05-11T07:44:59.483Z,13.27
2019-05-11T07:49:53.498Z,13.67
2019-05-11T07:54:52.602Z,13.63
2019-05-11T07:59:43.361Z,14.97
2019-05-11T08:04:37.921Z,15.47
2019-05-11T08:09:32.018Z,15.53
2019-05-11T08:14:28.758Z,15.63
2019-05-11T08:19:22.480Z,16.03
2019-05-11T08:24:18.031Z,15.77
2019-05-11T08:29:12.230Z,15.13
2019-05-11T08:34:08.664Z,14.80
2019-05-11T08:39:04.688Z,15.60
2019-05-11T08:43:58.915Z,16.43
2019-05-11T08:48:52.942Z,16.40
2019-05-11T08:53:48.007Z,17.43
2019-05-11T08:58:42.185Z,18.90
2019-05-11T09:03:38.553Z,18.93
2019-05-11T09:08:32.109Z,18.70
2019-05-11T09:13:27.920Z,20.00
2019-05-11T09:18:22.110Z,20.63
2019-05-11T09:23:30.890Z,25.43
2019-05-11T09:28:12.170Z,28.07
2019-05-11T09:33:08.404Z,30.50
2019-05-11T09:38:02.346Z,33.00
2019-05-11T09:42:58.322Z,34.60
2019-05-11T09:47:52.232Z,32.10
2019-05-11T09:52:48.722Z,29.87
2019-05-11T09:57:42.292Z,30.10
2019-05-11T10:02:38.539Z,31.20
2019-05-11T10:07:32.676Z,29.80
2019-05-11T10:12:28.606Z,28.93
2019-05-11T10:17:22.493Z,27.77
2019-05-11T10:22:18.554Z,26.73
2019-05-11T10:27:12.565Z,26.57
2019-05-11T10:32:07.952Z,25.23
2019-05-11T10:37:02.241Z,23.02
2019-05-11T10:41:58.385Z,21.85
2019-05-11T10:46:52.281Z,19.32
2019-05-11T10:51:48.503Z,18.50
2019-05-11T10:56:42.221Z,16.87
2019-05-11T11:01:38.000Z,16.50
2019-05-11T11:06:33.440Z,15.15
2019-05-11T11:11:27.962Z,13.98
2019-05-11T11:16:35.737Z,14.03
2019-05-11T11:21:22.529Z,13.03
2019-05-11T11:26:13.901Z,12.15
2019-05-11T11:31:08.072Z,12.30
2019-05-11T11:36:02.157Z,11.18
2019-05-11T11:40:58.511Z,11.80
2019-05-11T11:45:52.001Z,11.22
2019-05-11T11:50:48.053Z,11.57
2019-05-11T11:55:41.967Z,10.90
2019-05-11T12:00:36.085Z,10.10
2019-05-11T12:05:30.217Z,10.13
2019-05-11T12:10:24.222Z,9.88
2019-05-11T12:15:18.398Z,10.13
2019-05-11T12:20:12.678Z,9.83
2019-05-11T12:25:07.954Z,10.45
2019-05-11T12:30:05.354Z,10.72
2019-05-11T12:34:59.357Z,10.58
2019-05-11T12:39:53.332Z,10.68
2019-05-11T12:44:48.153Z,10.40
2019-05-11T12:49:42.503Z,10.55
2019-05-11T12:54:38.401Z,9.60
2019-05-11T12:59:32.529Z,8.58
2019-05-11T13:04:28.249Z,8.85
2019-05-11T13:09:22.426Z,8.43
2019-05-11T13:14:18.451Z,8.68
2019-05-11T13:19:12.385Z,9.15
2019-05-11T13:24:08.326Z,9.05
2019-05-11T13:29:02.471Z,9.88
2019-05-11T13:33:58.544Z,10.90
2019-05-11T13:38:52.369Z,10.40
2019-05-11T13:43:48.528Z,10.50
2019-05-11T13:48:42.429Z,9.80
2019-05-11T13:53:37.662Z,8.97
2019-05-11T13:58:31.789Z,8.73
2019-05-11T14:03:27.688Z,8.13
2019-05-11T14:08:21.776Z,7.60
2019-05-11T14:13:17.560Z,6.25
2019-05-11T14:18:12.162Z,5.67
2019-05-11T14:23:07.719Z,5.22
2019-05-11T14:28:02.031Z,5.33
2019-05-11T14:32:58.102Z,5.30
2019-05-11T14:37:51.996Z,5.37
2019-05-11T14:42:45.981Z,4.83
2019-05-11T14:47:42.690Z,4.50
2019-05-11T14:52:38.191Z,4.87
2019-05-11T14:57:31.943Z,4.90
2019-05-11T15:02:28.653Z,4.65
2019-05-11T15:07:22.717Z,4.42
2019-05-11T15:12:18.154Z,4.47
2019-05-11T15:17:12.253Z,5.33
2019-05-11T15:22:08.553Z,5.37
2019-05-11T15:27:02.089Z,5.00
2019-05-11T15:31:57.919Z,6.20
2019-05-11T15:36:52.056Z,5.72
2019-05-11T15:41:48.043Z,6.00
2019-05-11T15:46:42.255Z,5.37
2019-05-11T15:51:40.753Z,6.70
2019-05-11T15:56:32.511Z,5.92
2019-05-11T16:01:28.778Z,5.80
2019-05-11T16:06:22.470Z,5.60
2019-05-11T16:11:18.088Z,5.53
2019-05-11T16:16:13.863Z,6.25
2019-05-11T16:21:07.853Z,5.92
2019-05-11T16:26:02.329Z,6.05
2019-05-11T16:30:58.348Z,5.85
2019-05-11T16:35:52.310Z,6.40
2019-05-11T16:40:48.024Z,7.10
2019-05-11T16:45:42.314Z,7.25
2019-05-11T16:50:38.284Z,7.00
2019-05-11T16:55:32.325Z,7.55
2019-05-11T17:00:26.383Z,7.35
2019-05-11T17:05:26.650Z,6.20
2019-05-11T17:10:17.956Z,6.80
2019-05-11T17:15:12.412Z,6.72
2019-05-11T17:20:07.921Z,8.15
2019-05-11T17:25:04.931Z,7.40
2019-05-11T17:29:59.412Z,7.10
2019-05-11T17:34:53.426Z,7.47
2019-05-11T17:39:48.036Z,7.58
2019-05-11T17:44:42.116Z,7.40
2019-05-11T17:49:38.366Z,6.78
2019-05-11T17:54:32.106Z,7.12
2019-05-11T17:59:28.129Z,5.28
2019-05-11T18:04:25.047Z,3.80
2019-05-11T18:09:19.426Z,2.90
2019-05-11T18:14:13.448Z,2.52
2019-05-11T18:19:08.491Z,2.53
2019-05-11T18:24:03.109Z,2.60
2019-05-11T18:28:58.613Z,3.00
2019-05-11T18:33:52.775Z,2.50
2019-05-11T18:38:48.765Z,2.50
2019-05-11T18:43:42.698Z,2.50
2019-05-11T18:48:38.090Z,2.30
2019-05-11T18:53:32.323Z,3.23
2019-05-11T18:58:27.681Z,2.57
2019-05-11T19:03:22.026Z,2.27
2019-05-11T19:08:16.056Z,2.50
2019-05-11T19:13:10.213Z,2.57
2019-05-11T19:18:04.316Z,3.10
2019-05-11T19:22:58.967Z,2.70
2019-05-11T19:27:55.459Z,2.80
2019-05-11T19:32:50.768Z,2.90
2019-05-11T19:37:44.724Z,2.90
2019-05-11T19:42:53.846Z,2.73
2019-05-11T19:47:48.445Z,2.87
2019-05-11T19:52:42.612Z,2.77
2019-05-11T19:57:38.622Z,2.80
2019-05-11T20:02:32.844Z,2.43
2019-05-11T20:07:26.825Z,2.40
2019-05-11T20:12:20.963Z,2.90
2019-05-11T20:17:14.944Z,2.70
2019-05-11T20:22:09.071Z,2.73
2019-05-11T20:27:03.163Z,2.30
2019-05-11T20:31:58.545Z,2.63
2019-05-11T20:36:52.574Z,2.30
2019-05-11T20:41:47.741Z,2.30
2019-05-11T20:46:41.830Z,2.60
2019-05-11T20:51:37.163Z,2.60
2019-05-11T20:56:31.326Z,2.80
2019-05-11T21:01:28.294Z,2.60
2019-05-11T21:06:21.981Z,3.13
2019-05-11T21:11:17.990Z,3.10
2019-05-11T21:16:11.838Z,2.83
2019-05-11T21:21:05.869Z,3.00
2019-05-11T21:25:59.955Z,5.47
2019-05-11T21:30:54.061Z,3.83
2019-05-11T21:35:48.904Z,3.03
2019-05-11T21:40:43.575Z,3.37
2019-05-11T21:45:40.476Z,3.60
2019-05-11T21:50:33.512Z,3.80
2019-05-11T21:55:29.340Z,3.63
2019-05-11T22:00:25.486Z,3.30
2019-05-11T22:05:20.924Z,3.27
2019-05-11T22:10:17.286Z,3.03
2019-05-11T22:15:11.284Z,3.20
2019-05-11T22:20:07.575Z,3.23
2019-05-11T22:25:02.728Z,3.20
2019-05-11T22:29:58.945Z,3.00
2019-05-11T22:34:52.726Z,3.40
2019-05-11T22:39:46.741Z,3.57
2019-05-11T22:44:40.720Z,2.90
2019-05-11T22:49:34.778Z,3.80
2019-05-11T22:54:29.058Z,4.63
2019-05-11T22:59:23.084Z,3.73
2019-05-11T23:04:19.651Z,3.87
2019-05-11T23:09:13.523Z,4.07
2019-05-11T23:14:09.925Z,3.47
2019-05-11T23:19:03.443Z,3.30
2019-05-11T23:23:58.354Z,4.70
2019-05-11T23:28:52.501Z,3.90
2019-05-11T23:33:46.463Z,3.67
2019-05-11T23:38:40.428Z,4.60
2019-05-11T23:43:34.382Z,6.03
2019-05-11T23:48:28.358Z,5.90
2019-05-11T23:53:22.364Z,4.17
2019-05-11T23:58:19.160Z,4.07
